sensor_id;sensor_type;location;lat;lon;timestamp;pressure;altitude;pressure_sealevel;temperature;humidity
75089;BME280;63673;49.928;8.150;2023-04-19T00:00:13;998.64;;;8.61;100
75089;BME280;63673;49.928;8.150;2023-04-19T00:01:15;998.63;;;8.6;100
75089;BME280;63673;49.928;8.150;2023-04-19T00:02:16;998.62;;;8.57;100
75089;BME280;63673;49.928;8.150;2023-04-19T00:03:18;998.63;;;8.56;100
75089;BME280;63673;49.928;8.150;2023-04-19T00:04:19;998.63;;;8.55;100
75089;BME280;63673;49.928;8.150;2023-04-19T00:05:21;998.61;;;8.53;100
75089;BME280;63673;49.928;8.150;2023-04-19T00:06:23;998.59;;;8.51;100
75089;BME280;63673;49.928;8.150;2023-04-19T00:07:25;998.61;;;8.51;100
75089;BME280;63673;49.928;8.150;2023-04-19T00:08:26;998.55;;;8.49;100
75089;BME280;63673;49.928;8.150;2023-04-19T00:09:28;998.56;;;8.47;100
75089;BME280;63673;49.928;8.150;2023-04-19T00:10:30;998.53;;;8.47;100
75089;BME280;63673;49.928;8.150;2023-04-19T00:11:32;998.56;;;8.46;100
75089;BME280;63673;49.928;8.150;2023-04-19T00:12:33;998.52;;;8.45;100
75089;BME280;63673;49.928;8.150;2023-04-19T00:13:35;998.48;;;8.45;100
75089;BME280;63673;49.928;8.150;2023-04-19T00:14:37;998.51;;;8.44;100
75089;BME280;63673;49.928;8.150;2023-04-19T00:15:39;998.52;;;8.43;100
75089;BME280;63673;49.928;8.150;2023-04-19T00:16:40;998.55;;;8.42;100
75089;BME280;63673;49.928;8.150;2023-04-19T00:17:42;998.55;;;8.42;100
75089;BME280;63673;49.928;8.150;2023-04-19T00:18:44;998.51;;;8.42;100
75089;BME280;63673;49.928;8.150;2023-04-19T00:19:45;998.51;;;8.41;100
75089;BME280;63673;49.928;8.150;2023-04-19T00:20:47;998.49;;;8.41;100
75089;BME280;63673;49.928;8.150;2023-04-19T00:21:49;998.47;;;8.43;100
75089;BME280;63673;49.928;8.150;2023-04-19T00:22:51;998.5;;;8.43;100
75089;BME280;63673;49.928;8.150;2023-04-19T00:23:52;998.51;;;8.45;100
75089;BME280;63673;49.928;8.150;2023-04-19T00:24:54;998.43;;;8.45;100
75089;BME280;63673;49.928;8.150;2023-04-19T00:25:56;998.51;;;8.47;100
75089;BME280;63673;49.928;8.150;2023-04-19T00:26:57;998.51;;;8.49;100
75089;BME280;63673;49.928;8.150;2023-04-19T00:27:59;998.52;;;8.5;100
75089;BME280;63673;49.928;8.150;2023-04-19T00:29:01;998.44;;;8.52;100
75089;BME280;63673;49.928;8.150;2023-04-19T00:30:03;998.47;;;8.55;100
75089;BME280;63673;49.928;8.150;2023-04-19T00:31:04;998.47;;;8.56;100
75089;BME280;63673;49.928;8.150;2023-04-19T00:32:06;998.5;;;8.58;100
75089;BME280;63673;49.928;8.150;2023-04-19T00:33:08;998.51;;;8.6;100
75089;BME280;63673;49.928;8.150;2023-04-19T00:34:13;998.5;;;8.62;100
75089;BME280;63673;49.928;8.150;2023-04-19T00:35:11;998.49;;;8.64;100
75089;BME280;63673;49.928;8.150;2023-04-19T00:36:13;998.51;;;8.66;100
75089;BME280;63673;49.928;8.150;2023-04-19T00:37:15;998.51;;;8.69;100
75089;BME280;63673;49.928;8.150;2023-04-19T00:38:17;998.51;;;8.7;100
75089;BME280;63673;49.928;8.150;2023-04-19T00:39:18;998.48;;;8.72;100
75089;BME280;63673;49.928;8.150;2023-04-19T00:40:20;998.48;;;8.73;100
75089;BME280;63673;49.928;8.150;2023-04-19T00:41:22;998.48;;;8.76;100
75089;BME280;63673;49.928;8.150;2023-04-19T00:42:24;998.43;;;8.78;100
75089;BME280;63673;49.928;8.150;2023-04-19T00:43:25;998.44;;;8.79;100
75089;BME280;63673;49.928;8.150;2023-04-19T00:44:27;998.4;;;8.8;100
75089;BME280;63673;49.928;8.150;2023-04-19T00:45:29;998.41;;;8.83;100
75089;BME280;63673;49.928;8.150;2023-04-19T00:46:30;998.4;;;8.84;100
75089;BME280;63673;49.928;8.150;2023-04-19T00:47:32;998.4;;;8.85;100
75089;BME280;63673;49.928;8.150;2023-04-19T00:48:34;998.37;;;8.87;100
75089;BME280;63673;49.928;8.150;2023-04-19T00:49:36;998.41;;;8.87;100
75089;BME280;63673;49.928;8.150;2023-04-19T00:50:37;998.36;;;8.88;100
75089;BME280;63673;49.928;8.150;2023-04-19T00:51:39;998.39;;;8.89;100
75089;BME280;63673;49.928;8.150;2023-04-19T00:52:41;998.39;;;8.9;100
75089;BME280;63673;49.928;8.150;2023-04-19T00:53:43;998.39;;;8.91;100
75089;BME280;63673;49.928;8.150;2023-04-19T00:54:44;998.42;;;8.91;100
75089;BME280;63673;49.928;8.150;2023-04-19T00:55:46;998.36;;;8.92;100
75089;BME280;63673;49.928;8.150;2023-04-19T00:56:48;998.42;;;8.93;100
75089;BME280;63673;49.928;8.150;2023-04-19T00:57:49;998.42;;;8.94;100
75089;BME280;63673;49.928;8.150;2023-04-19T00:58:52;998.41;;;8.95;100
75089;BME280;63673;49.928;8.150;2023-04-19T00:59:53;998.38;;;8.95;100
75089;BME280;63673;49.928;8.150;2023-04-19T01:00:55;998.37;;;8.96;100
75089;BME280;63673;49.928;8.150;2023-04-19T01:01:56;998.33;;;8.97;100
75089;BME280;63673;49.928;8.150;2023-04-19T01:02:58;998.36;;;8.97;100
75089;BME280;63673;49.928;8.150;2023-04-19T01:04:00;998.33;;;8.97;100
75089;BME280;63673;49.928;8.150;2023-04-19T01:05:02;998.31;;;8.98;100
75089;BME280;63673;49.928;8.150;2023-04-19T01:06:03;998.38;;;8.99;100
75089;BME280;63673;49.928;8.150;2023-04-19T01:07:05;998.33;;;8.99;100
75089;BME280;63673;49.928;8.150;2023-04-19T01:08:07;998.24;;;9;100
75089;BME280;63673;49.928;8.150;2023-04-19T01:09:09;998.26;;;8.99;100
75089;BME280;63673;49.928;8.150;2023-04-19T01:10:10;998.29;;;9;100
75089;BME280;63673;49.928;8.150;2023-04-19T01:11:12;998.24;;;9;100
75089;BME280;63673;49.928;8.150;2023-04-19T01:12:14;998.18;;;9.01;100
75089;BME280;63673;49.928;8.150;2023-04-19T01:13:16;998.21;;;9.01;100
75089;BME280;63673;49.928;8.150;2023-04-19T01:14:17;998.18;;;9.01;100
75089;BME280;63673;49.928;8.150;2023-04-19T01:15:19;998.18;;;9.02;100
75089;BME280;63673;49.928;8.150;2023-04-19T01:16:21;998.17;;;9.02;100
75089;BME280;63673;49.928;8.150;2023-04-19T01:17:22;998.19;;;9.01;100
75089;BME280;63673;49.928;8.150;2023-04-19T01:18:24;998.17;;;9.02;100
75089;BME280;63673;49.928;8.150;2023-04-19T01:19:26;998.21;;;9.01;100
75089;BME280;63673;49.928;8.150;2023-04-19T01:20:28;998.17;;;9.02;100
75089;BME280;63673;49.928;8.150;2023-04-19T01:21:29;998.19;;;9.02;100
75089;BME280;63673;49.928;8.150;2023-04-19T01:22:31;998.17;;;9.02;100
75089;BME280;63673;49.928;8.150;2023-04-19T01:23:33;998.1;;;9.01;100
75089;BME280;63673;49.928;8.150;2023-04-19T01:24:35;998.13;;;9.02;100
75089;BME280;63673;49.928;8.150;2023-04-19T01:25:36;998.14;;;9.02;100
75089;BME280;63673;49.928;8.150;2023-04-19T01:26:38;998.09;;;9.02;100
75089;BME280;63673;49.928;8.150;2023-04-19T01:27:40;998.08;;;9.02;100
75089;BME280;63673;49.928;8.150;2023-04-19T01:28:42;998.11;;;9.02;100
75089;BME280;63673;49.928;8.150;2023-04-19T01:29:43;998.06;;;9.02;100
75089;BME280;63673;49.928;8.150;2023-04-19T01:30:45;998.11;;;9.02;100
75089;BME280;63673;49.928;8.150;2023-04-19T01:31:47;998.1;;;9.03;100
75089;BME280;63673;49.928;8.150;2023-04-19T01:32:48;998.08;;;9.02;100
75089;BME280;63673;49.928;8.150;2023-04-19T01:33:50;998.04;;;9.03;100
75089;BME280;63673;49.928;8.150;2023-04-19T01:34:52;998.03;;;9.03;100
75089;BME280;63673;49.928;8.150;2023-04-19T01:35:54;998.06;;;9.04;100
75089;BME280;63673;49.928;8.150;2023-04-19T01:36:55;998.07;;;9.05;100
75089;BME280;63673;49.928;8.150;2023-04-19T01:37:57;998.07;;;9.04;100
75089;BME280;63673;49.928;8.150;2023-04-19T01:38:59;998.1;;;9.05;100
75089;BME280;63673;49.928;8.150;2023-04-19T01:40:01;998.03;;;9.06;100
75089;BME280;63673;49.928;8.150;2023-04-19T01:41:02;998.06;;;9.06;100
75089;BME280;63673;49.928;8.150;2023-04-19T01:42:04;998.07;;;9.06;100
75089;BME280;63673;49.928;8.150;2023-04-19T01:43:06;998.01;;;9.06;100
75089;BME280;63673;49.928;8.150;2023-04-19T01:44:08;997.94;;;9.06;100
75089;BME280;63673;49.928;8.150;2023-04-19T01:45:09;997.99;;;9.07;100
75089;BME280;63673;49.928;8.150;2023-04-19T01:46:11;998.03;;;9.07;100
75089;BME280;63673;49.928;8.150;2023-04-19T01:47:13;997.98;;;9.07;100
75089;BME280;63673;49.928;8.150;2023-04-19T01:48:14;998.03;;;9.08;100
75089;BME280;63673;49.928;8.150;2023-04-19T01:49:16;997.95;;;9.07;100
75089;BME280;63673;49.928;8.150;2023-04-19T01:50:18;998.02;;;9.07;100
75089;BME280;63673;49.928;8.150;2023-04-19T01:51:20;997.97;;;9.07;100
75089;BME280;63673;49.928;8.150;2023-04-19T01:52:21;997.97;;;9.09;100
75089;BME280;63673;49.928;8.150;2023-04-19T01:53:23;997.94;;;9.06;100
75089;BME280;63673;49.928;8.150;2023-04-19T01:54:25;997.92;;;9.07;100
75089;BME280;63673;49.928;8.150;2023-04-19T01:55:27;997.92;;;9.07;100
75089;BME280;63673;49.928;8.150;2023-04-19T01:56:28;997.91;;;9.07;100
75089;BME280;63673;49.928;8.150;2023-04-19T01:57:30;997.91;;;9.08;100
75089;BME280;63673;49.928;8.150;2023-04-19T01:58:32;997.83;;;9.08;100
75089;BME280;63673;49.928;8.150;2023-04-19T01:59:34;997.85;;;9.07;100
75089;BME280;63673;49.928;8.150;2023-04-19T02:00:35;997.8;;;9.06;100
75089;BME280;63673;49.928;8.150;2023-04-19T02:01:37;997.85;;;9.06;100
75089;BME280;63673;49.928;8.150;2023-04-19T02:02:39;997.87;;;9.07;100
75089;BME280;63673;49.928;8.150;2023-04-19T02:03:41;997.84;;;9.06;100
75089;BME280;63673;49.928;8.150;2023-04-19T02:04:42;997.81;;;9.06;100
75089;BME280;63673;49.928;8.150;2023-04-19T02:05:44;997.81;;;9.06;100
75089;BME280;63673;49.928;8.150;2023-04-19T02:06:46;997.87;;;9.05;100
75089;BME280;63673;49.928;8.150;2023-04-19T02:07:47;997.85;;;9.06;100
75089;BME280;63673;49.928;8.150;2023-04-19T02:08:49;997.84;;;9.06;100
75089;BME280;63673;49.928;8.150;2023-04-19T02:09:51;997.88;;;9.06;100
75089;BME280;63673;49.928;8.150;2023-04-19T02:10:53;997.83;;;9.05;100
75089;BME280;63673;49.928;8.150;2023-04-19T02:11:54;997.82;;;9.05;100
75089;BME280;63673;49.928;8.150;2023-04-19T02:12:56;997.83;;;9.05;100
75089;BME280;63673;49.928;8.150;2023-04-19T02:13:58;997.79;;;9.04;100
75089;BME280;63673;49.928;8.150;2023-04-19T02:15:00;997.75;;;9.05;100
75089;BME280;63673;49.928;8.150;2023-04-19T02:16:01;997.75;;;9.05;100
75089;BME280;63673;49.928;8.150;2023-04-19T02:17:03;997.69;;;9.04;100
75089;BME280;63673;49.928;8.150;2023-04-19T02:18:05;997.71;;;9.03;100
75089;BME280;63673;49.928;8.150;2023-04-19T02:19:06;997.72;;;9.03;100
75089;BME280;63673;49.928;8.150;2023-04-19T02:20:08;997.72;;;9.02;100
75089;BME280;63673;49.928;8.150;2023-04-19T02:21:10;997.76;;;9.01;100
75089;BME280;63673;49.928;8.150;2023-04-19T02:22:12;997.73;;;9;100
75089;BME280;63673;49.928;8.150;2023-04-19T02:23:13;997.75;;;9;100
75089;BME280;63673;49.928;8.150;2023-04-19T02:24:15;997.72;;;9;100
75089;BME280;63673;49.928;8.150;2023-04-19T02:25:17;997.69;;;9;100
75089;BME280;63673;49.928;8.150;2023-04-19T02:26:19;997.71;;;8.99;100
75089;BME280;63673;49.928;8.150;2023-04-19T02:27:20;997.68;;;9;100
75089;BME280;63673;49.928;8.150;2023-04-19T02:28:22;997.73;;;8.98;100
75089;BME280;63673;49.928;8.150;2023-04-19T02:29:24;997.68;;;8.98;100
75089;BME280;63673;49.928;8.150;2023-04-19T02:30:26;997.67;;;8.98;100
75089;BME280;63673;49.928;8.150;2023-04-19T02:31:27;997.71;;;8.98;100
75089;BME280;63673;49.928;8.150;2023-04-19T02:32:29;997.72;;;8.97;100
75089;BME280;63673;49.928;8.150;2023-04-19T02:33:31;997.69;;;8.97;100
75089;BME280;63673;49.928;8.150;2023-04-19T02:34:33;997.7;;;8.96;100
75089;BME280;63673;49.928;8.150;2023-04-19T02:35:34;997.77;;;8.96;100
75089;BME280;63673;49.928;8.150;2023-04-19T02:36:36;997.71;;;8.95;100
75089;BME280;63673;49.928;8.150;2023-04-19T02:37:38;997.73;;;8.96;100
75089;BME280;63673;49.928;8.150;2023-04-19T02:38:39;997.76;;;8.96;100
75089;BME280;63673;49.928;8.150;2023-04-19T02:39:41;997.8;;;8.95;100
75089;BME280;63673;49.928;8.150;2023-04-19T02:40:43;997.77;;;8.95;100
75089;BME280;63673;49.928;8.150;2023-04-19T02:41:45;997.78;;;8.96;100
75089;BME280;63673;49.928;8.150;2023-04-19T02:42:46;997.77;;;8.95;100
75089;BME280;63673;49.928;8.150;2023-04-19T02:43:48;997.68;;;8.95;100
75089;BME280;63673;49.928;8.150;2023-04-19T02:44:50;997.74;;;8.96;100
75089;BME280;63673;49.928;8.150;2023-04-19T02:45:52;997.73;;;8.95;100
75089;BME280;63673;49.928;8.150;2023-04-19T02:46:53;997.71;;;8.95;100
75089;BME280;63673;49.928;8.150;2023-04-19T02:47:55;997.69;;;8.94;100
75089;BME280;63673;49.928;8.150;2023-04-19T02:48:59;997.69;;;8.95;100
75089;BME280;63673;49.928;8.150;2023-04-19T02:49:58;997.65;;;8.95;100
75089;BME280;63673;49.928;8.150;2023-04-19T02:51:00;997.63;;;8.95;100
75089;BME280;63673;49.928;8.150;2023-04-19T02:52:02;997.61;;;8.95;100
75089;BME280;63673;49.928;8.150;2023-04-19T02:53:04;997.65;;;8.95;100
75089;BME280;63673;49.928;8.150;2023-04-19T02:54:05;997.63;;;8.95;100
75089;BME280;63673;49.928;8.150;2023-04-19T02:55:08;997.62;;;8.95;100
75089;BME280;63673;49.928;8.150;2023-04-19T02:56:09;997.61;;;8.95;100
75089;BME280;63673;49.928;8.150;2023-04-19T02:57:11;997.64;;;8.95;100
75089;BME280;63673;49.928;8.150;2023-04-19T02:58:12;997.62;;;8.95;100
75089;BME280;63673;49.928;8.150;2023-04-19T02:59:14;997.65;;;8.95;100
75089;BME280;63673;49.928;8.150;2023-04-19T03:00:16;997.63;;;8.95;100
75089;BME280;63673;49.928;8.150;2023-04-19T03:01:18;997.6;;;8.95;100
75089;BME280;63673;49.928;8.150;2023-04-19T03:02:19;997.63;;;8.95;100
75089;BME280;63673;49.928;8.150;2023-04-19T03:03:21;997.61;;;8.95;100
75089;BME280;63673;49.928;8.150;2023-04-19T03:04:23;997.6;;;8.95;100
75089;BME280;63673;49.928;8.150;2023-04-19T03:05:24;997.6;;;8.94;100
75089;BME280;63673;49.928;8.150;2023-04-19T03:06:26;997.6;;;8.94;100
75089;BME280;63673;49.928;8.150;2023-04-19T03:07:28;997.54;;;8.93;100
75089;BME280;63673;49.928;8.150;2023-04-19T03:08:30;997.58;;;8.94;100
75089;BME280;63673;49.928;8.150;2023-04-19T03:09:31;997.55;;;8.93;100
75089;BME280;63673;49.928;8.150;2023-04-19T03:10:33;997.55;;;8.94;100
75089;BME280;63673;49.928;8.150;2023-04-19T03:11:35;997.56;;;8.94;100
75089;BME280;63673;49.928;8.150;2023-04-19T03:12:37;997.55;;;8.93;100
75089;BME280;63673;49.928;8.150;2023-04-19T03:13:38;997.57;;;8.92;100
75089;BME280;63673;49.928;8.150;2023-04-19T03:14:40;997.57;;;8.93;100
75089;BME280;63673;49.928;8.150;2023-04-19T03:15:42;997.52;;;8.92;100
75089;BME280;63673;49.928;8.150;2023-04-19T03:16:44;997.51;;;8.93;100
75089;BME280;63673;49.928;8.150;2023-04-19T03:17:45;997.55;;;8.93;100
75089;BME280;63673;49.928;8.150;2023-04-19T03:18:47;997.53;;;8.93;100
75089;BME280;63673;49.928;8.150;2023-04-19T03:19:49;997.47;;;8.93;100
75089;BME280;63673;49.928;8.150;2023-04-19T03:20:50;997.56;;;8.93;100
75089;BME280;63673;49.928;8.150;2023-04-19T03:21:52;997.49;;;8.92;100
75089;BME280;63673;49.928;8.150;2023-04-19T03:22:54;997.53;;;8.93;100
75089;BME280;63673;49.928;8.150;2023-04-19T03:23:56;997.51;;;8.94;100
75089;BME280;63673;49.928;8.150;2023-04-19T03:24:57;997.51;;;8.93;100
75089;BME280;63673;49.928;8.150;2023-04-19T03:25:59;997.56;;;8.93;100
75089;BME280;63673;49.928;8.150;2023-04-19T03:27:01;997.5;;;8.92;100
75089;BME280;63673;49.928;8.150;2023-04-19T03:28:03;997.49;;;8.92;100
75089;BME280;63673;49.928;8.150;2023-04-19T03:29:04;997.49;;;8.91;100
75089;BME280;63673;49.928;8.150;2023-04-19T03:30:06;997.47;;;8.91;100
75089;BME280;63673;49.928;8.150;2023-04-19T03:31:08;997.44;;;8.91;100
75089;BME280;63673;49.928;8.150;2023-04-19T03:32:10;997.48;;;8.9;100
75089;BME280;63673;49.928;8.150;2023-04-19T03:33:11;997.41;;;8.91;100
75089;BME280;63673;49.928;8.150;2023-04-19T03:34:13;997.45;;;8.9;100
75089;BME280;63673;49.928;8.150;2023-04-19T03:35:15;997.46;;;8.89;100
75089;BME280;63673;49.928;8.150;2023-04-19T03:36:16;997.43;;;8.89;100
75089;BME280;63673;49.928;8.150;2023-04-19T03:37:18;997.42;;;8.91;100
75089;BME280;63673;49.928;8.150;2023-04-19T03:38:20;997.44;;;8.89;100
75089;BME280;63673;49.928;8.150;2023-04-19T03:39:22;997.43;;;8.89;100
75089;BME280;63673;49.928;8.150;2023-04-19T03:40:23;997.41;;;8.89;100
75089;BME280;63673;49.928;8.150;2023-04-19T03:41:25;997.42;;;8.9;100
75089;BME280;63673;49.928;8.150;2023-04-19T03:42:27;997.37;;;8.89;100
75089;BME280;63673;49.928;8.150;2023-04-19T03:43:29;997.38;;;8.89;100
75089;BME280;63673;49.928;8.150;2023-04-19T03:45:39;997.38;;;8.89;100
75089;BME280;63673;49.928;8.150;2023-04-19T03:46:34;997.33;;;8.89;100
75089;BME280;63673;49.928;8.150;2023-04-19T03:47:36;997.35;;;8.89;100
75089;BME280;63673;49.928;8.150;2023-04-19T03:48:37;997.32;;;8.88;100
75089;BME280;63673;49.928;8.150;2023-04-19T03:49:39;997.35;;;8.88;100
75089;BME280;63673;49.928;8.150;2023-04-19T03:50:41;997.3;;;8.88;100
75089;BME280;63673;49.928;8.150;2023-04-19T03:51:43;997.29;;;8.88;100
75089;BME280;63673;49.928;8.150;2023-04-19T03:52:44;997.34;;;8.87;100
75089;BME280;63673;49.928;8.150;2023-04-19T03:53:46;997.27;;;8.87;100
75089;BME280;63673;49.928;8.150;2023-04-19T03:54:48;997.29;;;8.87;100
75089;BME280;63673;49.928;8.150;2023-04-19T03:55:49;997.28;;;8.87;100
75089;BME280;63673;49.928;8.150;2023-04-19T03:56:51;997.29;;;8.87;100
75089;BME280;63673;49.928;8.150;2023-04-19T03:57:53;997.27;;;8.86;100
75089;BME280;63673;49.928;8.150;2023-04-19T03:58:55;997.29;;;8.86;100
75089;BME280;63673;49.928;8.150;2023-04-19T03:59:56;997.21;;;8.85;100
75089;BME280;63673;49.928;8.150;2023-04-19T04:00:58;997.29;;;8.86;100
75089;BME280;63673;49.928;8.150;2023-04-19T04:02:00;997.26;;;8.86;100
75089;BME280;63673;49.928;8.150;2023-04-19T04:03:02;997.31;;;8.86;100
75089;BME280;63673;49.928;8.150;2023-04-19T04:04:03;997.25;;;8.85;100
75089;BME280;63673;49.928;8.150;2023-04-19T04:05:05;997.27;;;8.85;100
75089;BME280;63673;49.928;8.150;2023-04-19T04:06:07;997.25;;;8.85;100
75089;BME280;63673;49.928;8.150;2023-04-19T04:07:08;997.18;;;8.84;100
75089;BME280;63673;49.928;8.150;2023-04-19T04:08:10;997.27;;;8.84;100
75089;BME280;63673;49.928;8.150;2023-04-19T04:09:12;997.25;;;8.83;100
75089;BME280;63673;49.928;8.150;2023-04-19T04:10:14;997.26;;;8.84;100
75089;BME280;63673;49.928;8.150;2023-04-19T04:11:15;997.25;;;8.83;100
75089;BME280;63673;49.928;8.150;2023-04-19T04:12:17;997.28;;;8.85;100
75089;BME280;63673;49.928;8.150;2023-04-19T04:13:19;997.29;;;8.83;100
75089;BME280;63673;49.928;8.150;2023-04-19T04:14:21;997.29;;;8.84;100
75089;BME280;63673;49.928;8.150;2023-04-19T04:15:22;997.31;;;8.84;100
75089;BME280;63673;49.928;8.150;2023-04-19T04:16:24;997.3;;;8.84;100
75089;BME280;63673;49.928;8.150;2023-04-19T04:17:27;997.33;;;8.85;100
75089;BME280;63673;49.928;8.150;2023-04-19T04:18:28;997.31;;;8.85;100
75089;BME280;63673;49.928;8.150;2023-04-19T04:19:29;997.35;;;8.85;100
75089;BME280;63673;49.928;8.150;2023-04-19T04:20:31;997.33;;;8.86;100
75089;BME280;63673;49.928;8.150;2023-04-19T04:21:33;997.31;;;8.86;100
75089;BME280;63673;49.928;8.150;2023-04-19T04:22:34;997.32;;;8.85;100
75089;BME280;63673;49.928;8.150;2023-04-19T04:23:36;997.29;;;8.86;100
75089;BME280;63673;49.928;8.150;2023-04-19T04:24:38;997.3;;;8.86;100
75089;BME280;63673;49.928;8.150;2023-04-19T04:25:40;997.31;;;8.87;100
75089;BME280;63673;49.928;8.150;2023-04-19T04:26:48;997.36;;;8.86;100
75089;BME280;63673;49.928;8.150;2023-04-19T04:27:43;997.3;;;8.86;100
75089;BME280;63673;49.928;8.150;2023-04-19T04:28:45;997.32;;;8.86;100
75089;BME280;63673;49.928;8.150;2023-04-19T04:29:47;997.33;;;8.85;100
75089;BME280;63673;49.928;8.150;2023-04-19T04:30:48;997.37;;;8.86;100
75089;BME280;63673;49.928;8.150;2023-04-19T04:31:50;997.33;;;8.87;100
75089;BME280;63673;49.928;8.150;2023-04-19T04:32:52;997.34;;;8.86;100
75089;BME280;63673;49.928;8.150;2023-04-19T04:33:54;997.31;;;8.86;100
75089;BME280;63673;49.928;8.150;2023-04-19T04:34:55;997.35;;;8.86;100
75089;BME280;63673;49.928;8.150;2023-04-19T04:35:57;997.29;;;8.86;100
75089;BME280;63673;49.928;8.150;2023-04-19T04:36:59;997.35;;;8.86;100
75089;BME280;63673;49.928;8.150;2023-04-19T04:38:01;997.33;;;8.86;100
75089;BME280;63673;49.928;8.150;2023-04-19T04:39:02;997.35;;;8.87;100
75089;BME280;63673;49.928;8.150;2023-04-19T04:40:04;997.38;;;8.87;100
75089;BME280;63673;49.928;8.150;2023-04-19T04:41:06;997.38;;;8.87;100
75089;BME280;63673;49.928;8.150;2023-04-19T04:42:07;997.41;;;8.88;100
75089;BME280;63673;49.928;8.150;2023-04-19T04:43:09;997.39;;;8.88;100
75089;BME280;63673;49.928;8.150;2023-04-19T04:44:11;997.41;;;8.88;100
75089;BME280;63673;49.928;8.150;2023-04-19T04:45:13;997.44;;;8.88;100
75089;BME280;63673;49.928;8.150;2023-04-19T04:46:14;997.43;;;8.88;100
75089;BME280;63673;49.928;8.150;2023-04-19T04:47:16;997.46;;;8.88;100
75089;BME280;63673;49.928;8.150;2023-04-19T04:48:18;997.42;;;8.87;100
75089;BME280;63673;49.928;8.150;2023-04-19T04:49:20;997.4;;;8.88;100
75089;BME280;63673;49.928;8.150;2023-04-19T04:50:21;997.41;;;8.88;100
75089;BME280;63673;49.928;8.150;2023-04-19T04:51:23;997.4;;;8.88;100
75089;BME280;63673;49.928;8.150;2023-04-19T04:52:25;997.38;;;8.88;100
75089;BME280;63673;49.928;8.150;2023-04-19T04:53:27;997.4;;;8.87;100
75089;BME280;63673;49.928;8.150;2023-04-19T04:54:28;997.38;;;8.87;100
75089;BME280;63673;49.928;8.150;2023-04-19T04:55:30;997.37;;;8.87;100
75089;BME280;63673;49.928;8.150;2023-04-19T04:56:32;997.36;;;8.87;100
75089;BME280;63673;49.928;8.150;2023-04-19T04:57:33;997.34;;;8.86;100
75089;BME280;63673;49.928;8.150;2023-04-19T04:58:35;997.37;;;8.86;100
75089;BME280;63673;49.928;8.150;2023-04-19T04:59:37;997.41;;;8.86;100
75089;BME280;63673;49.928;8.150;2023-04-19T05:00:39;997.37;;;8.86;100
75089;BME280;63673;49.928;8.150;2023-04-19T05:01:40;997.35;;;8.84;100
75089;BME280;63673;49.928;8.150;2023-04-19T05:02:42;997.32;;;8.84;100
75089;BME280;63673;49.928;8.150;2023-04-19T05:03:44;997.33;;;8.84;100
75089;BME280;63673;49.928;8.150;2023-04-19T05:04:46;997.35;;;8.84;100
75089;BME280;63673;49.928;8.150;2023-04-19T05:05:47;997.32;;;8.85;100
75089;BME280;63673;49.928;8.150;2023-04-19T05:06:49;997.34;;;8.86;100
75089;BME280;63673;49.928;8.150;2023-04-19T05:07:51;997.36;;;8.86;100
75089;BME280;63673;49.928;8.150;2023-04-19T05:08:53;997.33;;;8.87;100
75089;BME280;63673;49.928;8.150;2023-04-19T05:09:54;997.32;;;8.89;100
75089;BME280;63673;49.928;8.150;2023-04-19T05:10:56;997.35;;;8.88;100
75089;BME280;63673;49.928;8.150;2023-04-19T05:11:58;997.35;;;8.9;100
75089;BME280;63673;49.928;8.150;2023-04-19T05:12:59;997.32;;;8.92;100
75089;BME280;63673;49.928;8.150;2023-04-19T05:14:01;997.32;;;8.94;100
75089;BME280;63673;49.928;8.150;2023-04-19T05:15:03;997.31;;;8.96;100
75089;BME280;63673;49.928;8.150;2023-04-19T05:16:05;997.35;;;8.97;100
75089;BME280;63673;49.928;8.150;2023-04-19T05:17:06;997.33;;;8.98;100
75089;BME280;63673;49.928;8.150;2023-04-19T05:18:08;997.31;;;9;100
75089;BME280;63673;49.928;8.150;2023-04-19T05:19:10;997.25;;;9.01;100
75089;BME280;63673;49.928;8.150;2023-04-19T05:20:12;997.27;;;9.03;100
75089;BME280;63673;49.928;8.150;2023-04-19T05:21:13;997.3;;;9.05;100
75089;BME280;63673;49.928;8.150;2023-04-19T05:22:15;997.3;;;9.06;100
75089;BME280;63673;49.928;8.150;2023-04-19T05:23:17;997.25;;;9.09;100
75089;BME280;63673;49.928;8.150;2023-04-19T05:24:19;997.31;;;9.1;100
75089;BME280;63673;49.928;8.150;2023-04-19T05:25:20;997.34;;;9.11;100
75089;BME280;63673;49.928;8.150;2023-04-19T05:26:22;997.32;;;9.12;100
75089;BME280;63673;49.928;8.150;2023-04-19T05:27:24;997.31;;;9.13;100
75089;BME280;63673;49.928;8.150;2023-04-19T05:28:25;997.27;;;9.15;100
75089;BME280;63673;49.928;8.150;2023-04-19T05:29:27;997.24;;;9.16;100
75089;BME280;63673;49.928;8.150;2023-04-19T05:30:29;997.24;;;9.17;100
75089;BME280;63673;49.928;8.150;2023-04-19T05:31:31;997.26;;;9.19;100
75089;BME280;63673;49.928;8.150;2023-04-19T05:32:32;997.23;;;9.21;100
75089;BME280;63673;49.928;8.150;2023-04-19T05:33:34;997.29;;;9.22;100
75089;BME280;63673;49.928;8.150;2023-04-19T05:34:36;997.24;;;9.24;100
75089;BME280;63673;49.928;8.150;2023-04-19T05:35:38;997.28;;;9.25;100
75089;BME280;63673;49.928;8.150;2023-04-19T05:36:39;997.31;;;9.26;100
75089;BME280;63673;49.928;8.150;2023-04-19T05:37:41;997.3;;;9.28;100
75089;BME280;63673;49.928;8.150;2023-04-19T05:38:43;997.3;;;9.28;100
75089;BME280;63673;49.928;8.150;2023-04-19T05:39:45;997.27;;;9.3;100
75089;BME280;63673;49.928;8.150;2023-04-19T05:40:46;997.21;;;9.3;100
75089;BME280;63673;49.928;8.150;2023-04-19T05:41:48;997.21;;;9.33;100
75089;BME280;63673;49.928;8.150;2023-04-19T05:42:50;997.22;;;9.34;100
75089;BME280;63673;49.928;8.150;2023-04-19T05:43:52;997.16;;;9.36;100
75089;BME280;63673;49.928;8.150;2023-04-19T05:44:53;997.23;;;9.36;100
75089;BME280;63673;49.928;8.150;2023-04-19T05:45:55;997.23;;;9.37;100
75089;BME280;63673;49.928;8.150;2023-04-19T05:46:57;997.22;;;9.38;100
75089;BME280;63673;49.928;8.150;2023-04-19T05:47:58;997.25;;;9.38;100
75089;BME280;63673;49.928;8.150;2023-04-19T05:49:01;997.21;;;9.4;100
75089;BME280;63673;49.928;8.150;2023-04-19T05:50:02;997.18;;;9.41;100
75089;BME280;63673;49.928;8.150;2023-04-19T05:51:04;997.22;;;9.41;100
75089;BME280;63673;49.928;8.150;2023-04-19T05:52:05;997.1;;;9.41;100